createdAt,value
2018-06-10T00:00:11.178Z,9.63
2018-06-10T00:02:39.460Z,9.48
2018-06-10T00:05:07.739Z,10.30
2018-06-10T00:07:36.035Z,10.30
2018-06-10T00:10:04.322Z,10.18
2018-06-10T00:12:32.609Z,10.18
2018-06-10T00:15:00.859Z,10.68
2018-06-10T00:17:29.158Z,10.05
2018-06-10T00:19:57.420Z,10.00
2018-06-10T00:22:25.701Z,10.95
2018-06-10T00:24:54.009Z,10.30
2018-06-10T00:27:22.294Z,9.95
2018-06-10T00:29:50.563Z,11.05
2018-06-10T00:32:18.847Z,9.95
2018-06-10T00:34:47.134Z,9.50
2018-06-10T00:37:15.434Z,10.48
2018-06-10T00:39:43.785Z,11.05
2018-06-10T00:42:12.075Z,11.05
2018-06-10T00:44:40.331Z,10.50
2018-06-10T00:47:08.639Z,10.88
2018-06-10T00:49:36.882Z,10.93
2018-06-10T00:52:05.191Z,10.70
2018-06-10T00:54:33.470Z,10.78
2018-06-10T00:57:01.726Z,10.50
2018-06-10T00:59:30.030Z,11.12
2018-06-10T01:01:58.315Z,10.82
2018-06-10T01:04:26.621Z,10.98
2018-06-10T01:06:54.870Z,10.50
2018-06-10T01:09:23.173Z,10.95
2018-06-10T01:11:51.501Z,10.93
2018-06-10T01:14:19.798Z,10.75
2018-06-10T01:16:48.056Z,11.83
2018-06-10T01:19:16.471Z,12.05
2018-06-10T01:21:44.727Z,11.43
2018-06-10T01:24:13.055Z,11.73
2018-06-10T01:26:46.583Z,11.85
2018-06-10T01:29:14.866Z,12.05
2018-06-10T01:31:43.122Z,11.68
2018-06-10T01:34:11.411Z,11.68
2018-06-10T01:36:39.676Z,11.70
2018-06-10T01:39:07.958Z,11.60
2018-06-10T01:41:36.206Z,11.97
2018-06-10T01:44:04.503Z,12.33
2018-06-10T01:46:32.753Z,11.93
2018-06-10T01:49:01.051Z,11.48
2018-06-10T01:51:29.294Z,11.95
2018-06-10T01:53:57.593Z,12.65
2018-06-10T01:56:25.855Z,12.30
2018-06-10T01:58:54.228Z,13.50
2018-06-10T02:01:22.517Z,13.00
2018-06-10T02:03:50.826Z,13.28
2018-06-10T02:06:19.102Z,14.20
2018-06-10T02:08:47.453Z,13.83
2018-06-10T02:11:15.698Z,13.17
2018-06-10T02:13:43.987Z,13.48
2018-06-10T02:16:12.366Z,13.13
2018-06-10T02:18:40.670Z,13.03
2018-06-10T02:21:08.917Z,13.65
2018-06-10T02:23:37.255Z,13.53
2018-06-10T02:26:05.563Z,14.15
2018-06-10T02:28:33.859Z,14.18
2018-06-10T02:31:02.110Z,14.63
2018-06-10T02:33:30.366Z,15.10
2018-06-10T02:35:58.654Z,14.38
2018-06-10T02:38:26.960Z,14.25
2018-06-10T02:40:55.283Z,15.08
2018-06-10T02:43:23.566Z,15.75
2018-06-10T02:45:51.978Z,17.20
2018-06-10T02:48:20.239Z,15.43
2018-06-10T02:50:48.608Z,14.95
2018-06-10T02:53:16.909Z,16.17
2018-06-10T02:55:45.242Z,16.02
2018-06-10T02:58:13.497Z,16.00
2018-06-10T03:00:41.818Z,16.48
2018-06-10T03:03:10.110Z,16.90
2018-06-10T03:05:38.398Z,17.32
2018-06-10T03:08:06.684Z,16.62
2018-06-10T03:10:34.974Z,17.05
2018-06-10T03:13:03.543Z,17.27
2018-06-10T03:15:31.866Z,17.07
2018-06-10T03:18:00.131Z,17.62
2018-06-10T03:20:28.491Z,16.45
2018-06-10T03:22:56.750Z,17.62
2018-06-10T03:25:25.090Z,17.57
2018-06-10T03:27:53.362Z,17.50
2018-06-10T03:30:21.669Z,17.20
2018-06-10T03:32:49.938Z,17.73
2018-06-10T03:35:18.263Z,16.93
2018-06-10T03:37:46.535Z,16.30
2018-06-10T03:40:14.849Z,17.50
2018-06-10T03:42:43.106Z,17.17
2018-06-10T03:45:11.402Z,17.87
2018-06-10T03:47:39.653Z,17.23
2018-06-10T03:50:07.952Z,17.85
2018-06-10T03:52:36.651Z,17.40
2018-06-10T03:55:05.039Z,18.60
2018-06-10T03:57:33.640Z,18.82
2018-06-10T04:00:01.975Z,19.50
2018-06-10T04:02:30.274Z,18.95
2018-06-10T04:04:58.577Z,19.17
2018-06-10T04:07:26.859Z,21.55
2018-06-10T04:09:55.190Z,19.70
2018-06-10T04:12:23.441Z,19.73
2018-06-10T04:14:51.706Z,19.48
2018-06-10T04:17:20.130Z,19.27
2018-06-10T04:19:48.382Z,19.27
2018-06-10T04:22:16.670Z,18.32
2018-06-10T04:24:44.937Z,20.90
2018-06-10T04:27:13.286Z,19.12
2018-06-10T04:29:41.577Z,20.20
2018-06-10T04:32:09.867Z,19.48
2018-06-10T04:34:38.109Z,20.97
2018-06-10T04:37:06.400Z,21.07
2018-06-10T04:39:33.708Z,19.15
2018-06-10T04:42:02.005Z,22.27
2018-06-10T04:44:30.258Z,19.75
2018-06-10T04:46:58.602Z,20.80
2018-06-10T04:49:26.863Z,20.55
2018-06-10T04:51:55.175Z,19.15
2018-06-10T04:54:23.442Z,19.90
2018-06-10T04:56:51.727Z,19.10
2018-06-10T04:59:19.973Z,19.85
2018-06-10T05:01:48.262Z,18.52
2018-06-10T05:04:16.505Z,18.45
2018-06-10T05:06:44.802Z,20.37
2018-06-10T05:09:13.056Z,18.82
2018-06-10T05:11:41.346Z,18.05
2018-06-10T05:14:09.611Z,18.92
2018-06-10T05:16:37.925Z,19.23
2018-06-10T05:19:06.176Z,19.37
2018-06-10T05:21:34.492Z,19.87
2018-06-10T05:24:02.837Z,19.75
2018-06-10T05:26:31.235Z,20.88
2018-06-10T05:29:02.541Z,21.35
2018-06-10T05:31:31.286Z,19.90
2018-06-10T05:33:59.546Z,20.27
2018-06-10T05:36:27.894Z,20.60
2018-06-10T05:38:56.254Z,22.15
2018-06-10T05:41:24.551Z,20.10
2018-06-10T05:43:52.800Z,20.90
2018-06-10T05:46:21.110Z,21.65
2018-06-10T05:48:49.425Z,20.75
2018-06-10T05:51:17.777Z,21.48
2018-06-10T05:53:46.055Z,22.32
2018-06-10T05:56:14.314Z,22.80
2018-06-10T05:58:42.860Z,21.42
2018-06-10T06:01:11.126Z,23.73
2018-06-10T06:03:39.422Z,22.67
2018-06-10T06:06:07.694Z,22.02
2018-06-10T06:08:36.018Z,23.38
2018-06-10T06:11:04.289Z,21.90
2018-06-10T06:13:32.590Z,24.45
2018-06-10T06:16:00.881Z,22.52
2018-06-10T06:18:29.230Z,23.02
2018-06-10T06:20:57.552Z,23.40
2018-06-10T06:23:25.859Z,23.27
2018-06-10T06:25:54.186Z,22.32
2018-06-10T06:28:22.493Z,22.30
2018-06-10T06:30:50.755Z,23.15
2018-06-10T06:33:19.474Z,23.15
2018-06-10T06:35:47.710Z,22.75
2018-06-10T06:38:16.007Z,21.97
2018-06-10T06:40:44.258Z,23.18
2018-06-10T06:43:12.585Z,23.15
2018-06-10T06:45:40.927Z,23.67
2018-06-10T06:48:09.485Z,22.48
2018-06-10T06:50:37.980Z,22.75
2018-06-10T06:53:06.355Z,23.20
2018-06-10T06:55:34.730Z,22.55
2018-06-10T06:58:03.329Z,23.77
2018-06-10T07:00:31.721Z,22.17
2018-06-10T07:03:00.138Z,23.02
2018-06-10T07:05:28.434Z,24.18
2018-06-10T07:07:56.858Z,23.32
2018-06-10T07:10:25.195Z,22.35
2018-06-10T07:12:53.529Z,22.30
2018-06-10T07:15:21.778Z,21.90
2018-06-10T07:17:50.068Z,21.87
2018-06-10T07:20:18.858Z,23.10
2018-06-10T07:22:47.301Z,23.02
2018-06-10T07:25:15.560Z,23.07
2018-06-10T07:27:44.011Z,22.32
2018-06-10T07:30:12.394Z,21.87
2018-06-10T07:32:40.700Z,22.42
2018-06-10T07:35:09.021Z,22.10
2018-06-10T07:37:37.266Z,22.73
2018-06-10T07:40:05.575Z,22.80
2018-06-10T07:42:33.898Z,21.95
2018-06-10T07:45:02.224Z,22.07
2018-06-10T07:47:30.643Z,21.87
2018-06-10T07:49:58.997Z,20.97
2018-06-10T07:52:27.312Z,19.73
2018-06-10T07:54:55.609Z,20.85
2018-06-10T07:57:23.857Z,19.82
2018-06-10T07:59:52.325Z,20.08
2018-06-10T08:02:20.581Z,20.50
2018-06-10T08:04:48.955Z,20.12
2018-06-10T08:07:17.534Z,19.30
2018-06-10T08:09:45.852Z,18.87
2018-06-10T08:12:14.136Z,19.85
2018-06-10T08:14:42.446Z,19.00
2018-06-10T08:17:10.711Z,19.20
2018-06-10T08:19:39.103Z,19.27
2018-06-10T08:22:07.428Z,19.32
2018-06-10T08:24:35.719Z,18.85
2018-06-10T08:27:04.022Z,18.27
2018-06-10T08:29:32.328Z,19.50
2018-06-10T08:32:00.694Z,17.45
2018-06-10T08:34:29.061Z,18.12
2018-06-10T08:36:57.334Z,17.77
2018-06-10T08:39:25.634Z,16.87
2018-06-10T08:41:53.895Z,16.77
2018-06-10T08:44:22.218Z,16.07
2018-06-10T08:46:50.534Z,16.97
2018-06-10T08:49:18.836Z,15.90
2018-06-10T08:51:48.186Z,16.45
2018-06-10T08:54:16.530Z,15.80
2018-06-10T08:56:44.794Z,17.02
2018-06-10T08:59:13.146Z,17.07
2018-06-10T09:01:41.483Z,18.15
2018-06-10T09:04:09.779Z,16.75
2018-06-10T09:06:38.049Z,16.52
2018-06-10T09:09:08.952Z,16.55
2018-06-10T09:11:37.777Z,16.65
2018-06-10T09:14:06.074Z,16.30
2018-06-10T09:16:34.482Z,16.75
2018-06-10T09:19:02.802Z,17.57
2018-06-10T09:21:31.422Z,17.00
2018-06-10T09:24:00.055Z,16.90
2018-06-10T09:26:28.342Z,17.00
2018-06-10T09:28:56.615Z,16.70
2018-06-10T09:31:24.915Z,18.62
2018-06-10T09:33:54.658Z,17.90
2018-06-10T09:36:23.494Z,19.37
2018-06-10T09:38:52.050Z,17.80
2018-06-10T09:41:20.346Z,18.15
2018-06-10T09:43:48.725Z,16.85
2018-06-10T09:46:17.158Z,16.97
2018-06-10T09:48:45.530Z,16.27
2018-06-10T09:51:13.958Z,18.15
2018-06-10T09:53:42.210Z,16.55
2018-06-10T09:56:10.506Z,17.85
2018-06-10T09:58:38.902Z,17.77
2018-06-10T10:01:07.204Z,18.30
2018-06-10T10:03:35.552Z,17.85
2018-06-10T10:06:04.168Z,18.07
2018-06-10T10:08:32.498Z,17.70
2018-06-10T10:11:00.813Z,19.17
2018-06-10T10:13:29.074Z,18.25
2018-06-10T10:15:57.430Z,20.25
2018-06-10T10:18:25.712Z,15.60
2018-06-10T10:20:54.032Z,15.93
2018-06-10T10:23:22.295Z,15.38
2018-06-10T10:25:50.579Z,15.53
2018-06-10T10:28:18.883Z,14.80
2018-06-10T10:30:47.155Z,15.28
2018-06-10T10:33:15.446Z,17.65
2018-06-10T10:35:43.901Z,16.07
2018-06-10T10:38:12.270Z,14.80
2018-06-10T10:40:40.632Z,14.40
2018-06-10T10:43:08.973Z,14.47
2018-06-10T10:45:37.288Z,13.93
2018-06-10T10:48:05.618Z,14.07
2018-06-10T10:50:34.130Z,14.13
2018-06-10T10:53:02.427Z,14.35
2018-06-10T10:55:30.746Z,13.45
2018-06-10T10:57:59.062Z,13.80
2018-06-10T11:00:27.427Z,14.18
2018-06-10T11:02:55.781Z,13.05
2018-06-10T11:05:24.080Z,13.18
2018-06-10T11:07:53.127Z,14.50
2018-06-10T11:10:21.432Z,14.47
2018-06-10T11:12:49.842Z,15.00
2018-06-10T11:15:18.263Z,13.98
2018-06-10T11:17:46.623Z,14.55
2018-06-10T11:20:15.050Z,13.90
2018-06-10T11:22:43.339Z,13.60
2018-06-10T11:25:11.779Z,13.65
2018-06-10T11:27:40.777Z,14.23
2018-06-10T11:30:09.330Z,13.98
2018-06-10T11:32:37.612Z,13.95
2018-06-10T11:35:05.922Z,13.28
2018-06-10T11:37:34.258Z,13.72
2018-06-10T11:40:02.664Z,14.30
2018-06-10T11:42:31.284Z,12.20
2018-06-10T11:45:00.327Z,12.03
2018-06-10T11:47:28.657Z,13.78
2018-06-10T11:49:56.917Z,13.05
2018-06-10T11:52:25.230Z,14.18
2018-06-10T11:54:53.751Z,15.23
2018-06-10T11:57:22.654Z,15.23
2018-06-10T11:59:50.938Z,16.00
2018-06-10T12:02:19.259Z,16.20
2018-06-10T12:04:47.586Z,16.50
2018-06-10T12:07:15.926Z,16.45
2018-06-10T12:09:44.258Z,15.35
2018-06-10T12:12:12.624Z,15.15
2018-06-10T12:14:40.962Z,15.58
2018-06-10T12:17:09.336Z,15.63
2018-06-10T12:19:37.635Z,15.65
2018-06-10T12:22:05.934Z,16.02
2018-06-10T12:24:34.306Z,15.28
2018-06-10T12:27:02.679Z,15.25
2018-06-10T12:29:30.981Z,16.37
2018-06-10T12:31:59.720Z,16.05
2018-06-10T12:34:28.361Z,16.32
2018-06-10T12:37:00.877Z,16.97
2018-06-10T12:39:38.465Z,15.93
2018-06-10T12:43:27.568Z,16.05
2018-06-10T12:48:53.515Z,15.23
2018-06-10T12:51:31.357Z,16.00
2018-06-10T12:54:01.214Z,16.50
2018-06-10T12:56:39.013Z,16.00
2018-06-10T12:59:09.837Z,15.35
2018-06-10T13:01:38.392Z,15.65
2018-06-10T13:04:07.076Z,16.20
2018-06-10T13:06:35.818Z,14.60
2018-06-10T13:09:06.795Z,14.10
2018-06-10T13:11:35.542Z,14.00
2018-06-10T13:14:06.481Z,13.40
2018-06-10T13:16:37.163Z,15.03
2018-06-10T13:19:06.918Z,13.80
2018-06-10T13:21:42.570Z,14.50
2018-06-10T13:24:12.366Z,14.50
2018-06-10T13:26:44.640Z,13.25
2018-06-10T13:29:18.338Z,14.20
2018-06-10T13:31:47.130Z,12.68
2018-06-10T13:34:18.897Z,14.07
2018-06-10T13:36:58.204Z,13.08
2018-06-10T13:39:31.260Z,12.93
2018-06-10T13:42:12.749Z,12.75
2018-06-10T13:44:45.730Z,13.95
2018-06-10T13:50:05.800Z,12.65
2018-06-10T13:52:35.922Z,12.75
2018-06-10T13:55:16.858Z,12.80
2018-06-10T13:57:45.341Z,13.60
2018-06-10T14:00:24.453Z,13.18
2018-06-10T14:02:53.776Z,12.10
2018-06-10T14:05:23.432Z,11.90
2018-06-10T14:08:14.297Z,12.53
2018-06-10T14:10:45.505Z,11.55
2018-06-10T14:13:14.428Z,10.63
2018-06-10T14:16:22.472Z,12.25
2018-06-10T14:18:52.382Z,11.78
2018-06-10T14:21:21.875Z,11.83
2018-06-10T14:23:59.852Z,12.25
2018-06-10T14:26:48.626Z,12.23
2018-06-10T14:29:17.744Z,11.85
2018-06-10T14:31:53.338Z,11.05
2018-06-10T14:34:23.872Z,12.00
2018-06-10T14:36:53.363Z,11.25
2018-06-10T14:39:30.970Z,11.55
2018-06-10T14:42:02.232Z,11.73
2018-06-10T14:44:36.312Z,11.63
2018-06-10T14:47:10.268Z,12.05
2018-06-10T14:49:43.339Z,11.12
2018-06-10T14:52:15.196Z,11.65
2018-06-10T14:54:47.885Z,10.63
2018-06-10T14:57:27.150Z,11.22
2018-06-10T14:59:59.246Z,11.85
2018-06-10T15:02:28.306Z,11.40
2018-06-10T15:04:59.113Z,12.75
2018-06-10T15:07:28.160Z,11.83
2018-06-10T15:10:06.011Z,11.78
2018-06-10T15:12:35.566Z,12.25
2018-06-10T15:15:06.216Z,13.93
2018-06-10T15:17:37.483Z,12.45
2018-06-10T15:20:19.140Z,12.15
2018-06-10T15:22:54.822Z,11.90
2018-06-10T15:25:26.688Z,11.18
2018-06-10T15:27:55.347Z,14.40
2018-06-10T15:30:23.931Z,12.07
2018-06-10T15:32:53.787Z,12.05
2018-06-10T15:38:30.202Z,10.82
2018-06-10T15:41:10.365Z,11.57
2018-06-10T15:46:36.517Z,12.07
2018-06-10T15:49:05.362Z,12.37
2018-06-10T15:51:35.654Z,12.10
2018-06-10T15:54:05.682Z,13.88
2018-06-10T15:56:38.678Z,11.88
2018-06-10T15:59:14.120Z,14.03
2018-06-10T16:02:03.759Z,14.87
2018-06-10T16:04:36.655Z,13.28
2018-06-10T16:07:10.924Z,13.50
2018-06-10T16:09:40.792Z,13.50
2018-06-10T16:12:09.966Z,12.60
2018-06-10T16:14:43.388Z,13.00
2018-06-10T16:17:12.456Z,13.28
2018-06-10T16:19:47.520Z,13.28
2018-06-10T16:22:17.299Z,12.78
2018-06-10T16:24:45.826Z,12.80
2018-06-10T16:27:14.863Z,13.53
2018-06-10T16:29:44.107Z,13.20
2018-06-10T16:32:14.563Z,12.75
2018-06-10T16:34:43.859Z,12.93
2018-06-10T16:37:13.022Z,13.43
2018-06-10T16:39:47.060Z,13.83
2018-06-10T16:42:17.351Z,13.28
2018-06-10T16:44:47.066Z,12.45
2018-06-10T16:47:17.161Z,12.58
2018-06-10T16:49:47.418Z,12.13
2018-06-10T16:52:16.099Z,13.28
2018-06-10T16:54:46.948Z,12.28
2018-06-10T16:57:16.106Z,12.37
2018-06-10T16:59:48.637Z,11.78
2018-06-10T17:02:17.365Z,11.80
2018-06-10T17:04:47.150Z,11.75
2018-06-10T17:07:24.065Z,11.97
2018-06-10T17:12:29.578Z,12.45
2018-06-10T17:14:59.715Z,12.37
2018-06-10T17:17:31.826Z,11.90
2018-06-10T17:20:01.262Z,11.40
2018-06-10T17:22:35.260Z,11.35
2018-06-10T17:25:07.503Z,11.73
2018-06-10T17:27:42.374Z,11.83
2018-06-10T17:30:32.930Z,11.10
2018-06-10T17:33:05.315Z,12.43
2018-06-10T17:35:47.661Z,11.83
2018-06-10T17:38:16.860Z,12.23
2018-06-10T17:40:46.104Z,12.03
2018-06-10T17:43:17.797Z,11.78
2018-06-10T17:45:57.909Z,12.73
2018-06-10T17:48:50.544Z,12.68
2018-06-10T17:51:22.323Z,11.88
2018-06-10T17:54:21.804Z,13.03
2018-06-10T17:56:54.567Z,12.70
2018-06-10T18:02:11.590Z,13.83
2018-06-10T18:04:47.789Z,13.83
2018-06-10T18:07:24.060Z,13.25
2018-06-10T18:10:04.372Z,13.35
2018-06-10T18:12:42.849Z,14.20
2018-06-10T18:15:21.784Z,13.60
2018-06-10T18:17:52.685Z,13.58
2018-06-10T18:20:22.654Z,13.32
2018-06-10T18:22:52.411Z,14.45
2018-06-10T18:25:21.316Z,15.65
2018-06-10T18:27:55.154Z,14.35
2018-06-10T18:30:28.629Z,16.05
2018-06-10T18:32:57.389Z,16.73
2018-06-10T18:35:27.558Z,16.10
2018-06-10T18:37:56.641Z,16.40
2018-06-10T18:40:35.265Z,15.45
2018-06-10T18:43:04.905Z,15.58
2018-06-10T18:45:36.754Z,16.93
2018-06-10T18:48:08.792Z,19.75
2018-06-10T18:50:39.533Z,19.17
2018-06-10T18:53:20.372Z,20.75
2018-06-10T18:55:58.735Z,19.65
2018-06-10T18:58:32.463Z,19.37
2018-06-10T19:01:07.347Z,20.00
2018-06-10T19:03:40.107Z,22.58
2018-06-10T19:06:15.277Z,22.22
2018-06-10T19:08:46.407Z,21.23
2018-06-10T19:11:18.153Z,22.15
2018-06-10T19:13:58.129Z,21.12
2018-06-10T19:19:21.676Z,23.45
2018-06-10T19:22:03.669Z,24.10
2018-06-10T19:24:39.400Z,22.27
2018-06-10T19:27:11.191Z,21.90
2018-06-10T19:30:29.563Z,24.30
2018-06-10T19:33:55.783Z,23.77
2018-06-10T19:36:27.763Z,23.35
2018-06-10T19:39:14.246Z,22.70
2018-06-10T19:42:00.144Z,21.70
2018-06-10T19:44:41.212Z,22.00
2018-06-10T19:47:13.625Z,23.52
2018-06-10T19:52:33.769Z,21.90
2018-06-10T19:55:06.968Z,23.20
2018-06-10T19:57:36.990Z,22.77
2018-06-10T20:00:06.101Z,23.70
2018-06-10T20:02:37.712Z,23.52
2018-06-10T20:05:09.977Z,22.87
2018-06-10T20:07:38.716Z,22.93
2018-06-10T20:10:07.994Z,22.80
2018-06-10T20:12:37.027Z,23.20
2018-06-10T20:15:16.093Z,23.18
2018-06-10T20:18:16.286Z,22.53
2018-06-10T20:20:46.248Z,21.90
2018-06-10T20:23:14.884Z,22.70
2018-06-10T20:25:45.064Z,22.70
2018-06-10T20:28:20.281Z,23.63
2018-06-10T20:30:49.673Z,22.63
2018-06-10T20:33:32.899Z,22.67
2018-06-10T20:36:02.720Z,23.60
2018-06-10T20:38:36.849Z,24.13
2018-06-10T20:41:06.742Z,24.37
2018-06-10T20:43:40.679Z,23.53
2018-06-10T20:46:09.907Z,24.32
2018-06-10T20:48:40.265Z,24.70
2018-06-10T20:51:21.487Z,25.23
2018-06-10T20:56:40.217Z,25.80
2018-06-10T20:59:08.915Z,25.73
2018-06-10T21:01:47.059Z,24.40
2018-06-10T21:04:26.822Z,26.57
2018-06-10T21:06:57.433Z,25.43
2018-06-10T21:09:39.191Z,25.20
2018-06-10T21:12:32.258Z,26.53
2018-06-10T21:18:35.109Z,24.53
2018-06-10T21:24:04.533Z,28.50
2018-06-10T21:26:35.622Z,29.10
2018-06-10T21:29:08.346Z,27.87
2018-06-10T21:31:38.870Z,28.80
2018-06-10T21:34:08.747Z,28.43
2018-06-10T21:36:39.487Z,29.80
2018-06-10T21:39:10.958Z,28.83
2018-06-10T21:41:41.107Z,29.57
2018-06-10T21:44:11.315Z,31.03
2018-06-10T21:46:40.225Z,29.73
2018-06-10T21:49:09.407Z,29.77
2018-06-10T21:51:41.830Z,30.00
2018-06-10T21:54:13.325Z,28.83
2018-06-10T21:56:45.067Z,29.07
2018-06-10T21:59:14.642Z,29.83
2018-06-10T22:01:44.492Z,30.27
2018-06-10T22:04:13.231Z,30.53
2018-06-10T22:06:42.739Z,30.03
2018-06-10T22:09:12.149Z,30.73
2018-06-10T22:11:41.557Z,31.10
2018-06-10T22:14:11.066Z,32.03
2018-06-10T22:16:39.967Z,30.17
2018-06-10T22:19:09.196Z,30.50
2018-06-10T22:24:20.766Z,32.07
2018-06-10T22:26:49.282Z,31.03
2018-06-10T22:29:18.846Z,32.00
2018-06-10T22:31:56.902Z,33.20
2018-06-10T22:34:26.376Z,32.07
2018-06-10T22:36:56.585Z,32.17
2018-06-10T22:39:26.322Z,31.37
2018-06-10T22:42:19.900Z,31.60
2018-06-10T22:44:48.532Z,31.83
2018-06-10T22:47:17.710Z,33.60
2018-06-10T22:49:46.469Z,34.33
2018-06-10T22:52:14.865Z,33.97
2018-06-10T22:54:46.867Z,34.60
2018-06-10T22:57:27.844Z,33.93
2018-06-10T22:59:58.357Z,32.77
2018-06-10T23:02:29.135Z,31.90
2018-06-10T23:04:57.945Z,34.23
2018-06-10T23:07:26.366Z,35.17
2018-06-10T23:09:54.735Z,36.90
2018-06-10T23:12:23.292Z,36.60
2018-06-10T23:14:52.623Z,38.83
2018-06-10T23:17:21.133Z,38.10
2018-06-10T23:19:49.514Z,38.07
2018-06-10T23:22:17.985Z,36.87
2018-06-10T23:24:50.033Z,37.63
2018-06-10T23:27:25.187Z,35.90
2018-06-10T23:29:53.571Z,38.43
2018-06-10T23:32:21.987Z,36.50
2018-06-10T23:34:50.663Z,37.60
2018-06-10T23:37:19.180Z,38.97
2018-06-10T23:39:48.079Z,37.53
2018-06-10T23:42:16.461Z,36.80
2018-06-10T23:44:44.975Z,36.83
2018-06-10T23:47:13.523Z,37.57
2018-06-10T23:49:42.849Z,37.00
2018-06-10T23:52:11.819Z,36.67
2018-06-10T23:54:40.257Z,34.90
2018-06-10T23:57:08.677Z,36.07
2018-06-10T23:59:38.138Z,36.00
